createdAt,value
2022-10-11T00:02:20.667Z,75.71
2022-10-11T00:04:47.908Z,75.03
2022-10-11T00:07:15.956Z,75.11
2022-10-11T00:09:43.627Z,75.57
2022-10-11T00:12:11.197Z,75.37
2022-10-11T00:14:39.061Z,75.63
2022-10-11T00:17:07.952Z,75.49
2022-10-11T00:19:34.993Z,75.22
2022-10-11T00:22:20.233Z,74.76
2022-10-11T00:25:06.627Z,74.82
2022-10-11T00:27:45.971Z,74.10
2022-10-11T00:30:26.485Z,74.24
2022-10-11T00:33:08.086Z,73.32
2022-10-11T00:35:46.426Z,73.82
2022-10-11T00:38:28.543Z,73.98
2022-10-11T00:41:10.830Z,73.95
2022-10-11T00:44:13.167Z,74.89
2022-10-11T00:47:08.965Z,74.22
2022-10-11T00:49:55.563Z,74.42
2022-10-11T00:52:41.762Z,74.40
2022-10-11T00:55:29.484Z,75.29
2022-10-11T00:58:13.941Z,76.71
2022-10-11T01:00:55.359Z,77.80
2022-10-11T01:03:40.618Z,78.20
2022-10-11T01:06:35.618Z,79.41
2022-10-11T01:09:17.455Z,79.85
2022-10-11T01:11:59.630Z,80.57
2022-10-11T01:14:55.466Z,80.38
2022-10-11T01:18:13.219Z,80.33
2022-10-11T01:21:05.303Z,80.30
2022-10-11T01:23:52.941Z,79.95
2022-10-11T01:27:25.514Z,80.04
2022-10-11T01:30:22.480Z,80.52
2022-10-11T01:33:24.356Z,79.73
2022-10-11T01:36:09.401Z,79.94
2022-10-11T01:38:56.508Z,80.14
2022-10-11T01:41:42.008Z,79.86
2022-10-11T01:44:24.428Z,79.32
2022-10-11T01:47:04.329Z,80.09
2022-10-11T01:49:54.402Z,79.49
2022-10-11T01:52:43.212Z,80.11
2022-10-11T01:55:41.594Z,79.91
2022-10-11T01:58:32.156Z,80.60
2022-10-11T02:01:51.310Z,80.50
2022-10-11T02:04:38.643Z,80.12
2022-10-11T02:07:20.904Z,79.45
2022-10-11T02:10:15.641Z,79.09
2022-10-11T02:12:59.824Z,79.32
2022-10-11T02:15:48.362Z,78.45
2022-10-11T02:18:33.247Z,78.27
2022-10-11T02:21:17.081Z,77.99
2022-10-11T02:24:16.779Z,78.41
2022-10-11T02:26:59.211Z,78.48
2022-10-11T02:29:41.751Z,79.63
2022-10-11T02:32:25.034Z,79.23
2022-10-11T02:35:07.846Z,79.20
2022-10-11T02:38:05.891Z,78.69
2022-10-11T02:40:54.417Z,79.10
2022-10-11T02:43:48.506Z,79.41
2022-10-11T02:46:30.538Z,79.49
2022-10-11T02:49:13.360Z,80.24
2022-10-11T02:51:59.473Z,80.87
2022-10-11T02:54:41.396Z,81.01
2022-10-11T02:57:22.828Z,81.05
2022-10-11T03:00:04.900Z,80.98
2022-10-11T03:02:46.002Z,81.18
2022-10-11T03:05:30.520Z,80.63
2022-10-11T03:08:11.112Z,80.13
2022-10-11T03:10:49.045Z,80.19
2022-10-11T03:13:28.662Z,80.62
2022-10-11T03:16:10.558Z,80.16
2022-10-11T03:18:52.648Z,79.74
2022-10-11T03:21:33.275Z,79.29
2022-10-11T03:24:20.480Z,79.36
2022-10-11T03:27:06.570Z,80.24
2022-10-11T03:29:45.645Z,81.18
2022-10-11T03:32:25.576Z,80.87
2022-10-11T03:35:08.000Z,82.65
2022-10-11T03:37:48.066Z,82.28
2022-10-11T03:40:26.314Z,83.06
2022-10-11T03:43:04.572Z,82.28
2022-10-11T03:45:44.328Z,82.72
2022-10-11T03:48:30.050Z,82.62
2022-10-11T03:51:08.870Z,82.50
2022-10-11T03:53:48.624Z,82.82
2022-10-11T03:56:28.510Z,83.00
2022-10-11T03:59:08.103Z,81.66
2022-10-11T04:01:47.881Z,81.32
2022-10-11T04:04:26.497Z,81.10
2022-10-11T04:07:04.550Z,81.49
2022-10-11T04:09:42.843Z,82.10
2022-10-11T04:12:22.708Z,82.66
2022-10-11T04:15:01.245Z,83.11
2022-10-11T04:17:43.241Z,83.18
2022-10-11T04:20:23.879Z,82.50
2022-10-11T04:23:03.725Z,83.14
2022-10-11T04:25:41.695Z,83.04
2022-10-11T04:28:20.044Z,82.83
2022-10-11T04:31:02.086Z,83.48
2022-10-11T04:33:42.999Z,83.67
2022-10-11T04:36:25.299Z,83.81
2022-10-11T04:39:07.362Z,84.44
2022-10-11T04:41:46.591Z,84.05
2022-10-11T04:44:25.307Z,84.54
2022-10-11T04:47:04.183Z,84.31
2022-10-11T04:49:43.336Z,84.32
2022-10-11T04:52:25.707Z,83.90
2022-10-11T04:55:06.552Z,84.80
2022-10-11T04:57:45.973Z,85.02
2022-10-11T05:00:24.398Z,85.19
2022-10-11T05:03:06.925Z,85.10
2022-10-11T05:05:53.314Z,85.69
2022-10-11T05:08:33.159Z,84.81
2022-10-11T05:11:15.683Z,84.03
2022-10-11T05:13:56.560Z,83.32
2022-10-11T05:16:38.436Z,82.93
2022-10-11T05:19:17.601Z,82.77
2022-10-11T05:21:58.057Z,82.96
2022-10-11T05:24:37.313Z,82.56
2022-10-11T05:27:20.860Z,81.82
2022-10-11T05:30:05.055Z,80.71
2022-10-11T05:32:44.523Z,79.40
2022-10-11T05:35:25.168Z,79.07
2022-10-11T05:38:08.541Z,78.48
2022-10-11T05:40:47.840Z,78.15
2022-10-11T05:43:27.725Z,78.15
2022-10-11T05:46:11.839Z,78.15
2022-10-11T05:48:49.850Z,79.55
2022-10-11T05:51:28.075Z,79.80
2022-10-11T05:54:10.376Z,79.43
2022-10-11T05:56:49.344Z,80.27
2022-10-11T05:59:28.958Z,81.34
2022-10-11T06:02:13.236Z,81.03
2022-10-11T06:04:55.682Z,79.25
2022-10-11T06:07:39.948Z,78.50
2022-10-11T06:10:18.368Z,77.91
2022-10-11T06:12:58.426Z,77.54
2022-10-11T06:15:40.188Z,77.52
2022-10-11T06:18:19.518Z,77.15
2022-10-11T06:21:01.697Z,76.19
2022-10-11T06:23:49.904Z,75.67
2022-10-11T06:26:51.992Z,74.95
2022-10-11T06:29:49.256Z,74.54
2022-10-11T06:33:04.637Z,73.96
2022-10-11T06:36:07.651Z,73.97
2022-10-11T06:39:05.359Z,73.96
2022-10-11T06:42:04.018Z,72.04
2022-10-11T06:44:58.237Z,71.16
2022-10-11T06:48:20.932Z,70.57
2022-10-11T06:51:26.138Z,68.57
2022-10-11T06:54:27.056Z,69.36
2022-10-11T06:57:24.364Z,69.41
2022-10-11T07:00:18.219Z,68.65
2022-10-11T07:03:18.680Z,68.42
2022-10-11T07:06:24.671Z,68.70
2022-10-11T07:09:21.065Z,68.21
2022-10-11T07:12:21.699Z,66.90
2022-10-11T07:15:31.115Z,67.20
2022-10-11T07:18:31.558Z,67.79
2022-10-11T07:21:30.946Z,66.67
2022-10-11T07:24:32.271Z,66.38
2022-10-11T07:27:41.534Z,67.45
2022-10-11T07:30:42.410Z,66.92
2022-10-11T07:33:39.606Z,66.48
2022-10-11T07:36:39.175Z,66.29
2022-10-11T07:39:39.235Z,67.00
2022-10-11T07:42:33.703Z,66.86
2022-10-11T07:45:30.986Z,66.04
2022-10-11T07:48:37.157Z,67.23
2022-10-11T07:51:34.326Z,65.80
2022-10-11T07:54:40.374Z,66.73
2022-10-11T07:57:37.563Z,67.05
2022-10-11T08:00:43.626Z,66.84
2022-10-11T08:03:59.081Z,66.56
2022-10-11T08:06:53.445Z,67.70
2022-10-11T08:09:50.744Z,66.01
2022-10-11T08:12:47.638Z,64.45
2022-10-11T08:16:11.098Z,64.11
2022-10-11T08:19:11.421Z,64.25
2022-10-11T08:22:28.509Z,64.57
2022-10-11T08:25:41.344Z,65.24
2022-10-11T08:28:37.760Z,65.60
2022-10-11T08:31:35.321Z,66.64
2022-10-11T08:34:14.305Z,66.46
2022-10-11T08:37:09.614Z,66.34
2022-10-11T08:40:16.126Z,66.09
2022-10-11T08:43:48.546Z,65.37
2022-10-11T08:47:20.887Z,65.17
2022-10-11T08:50:05.943Z,64.74
2022-10-11T08:53:05.982Z,64.86
2022-10-11T08:56:05.354Z,64.83
2022-10-11T09:48:41.766Z,62.63
2022-10-11T09:51:28.450Z,63.57
2022-10-11T09:54:10.920Z,63.84
2022-10-11T09:56:55.497Z,62.44
2022-10-11T10:03:07.398Z,61.83
2022-10-11T10:06:08.988Z,62.20
2022-10-11T10:08:53.323Z,61.03
2022-10-11T10:11:36.993Z,59.63
2022-10-11T10:14:30.769Z,59.50
2022-10-11T10:17:20.282Z,59.53
2022-10-11T10:20:01.818Z,58.89
2022-10-11T10:22:47.160Z,57.93
2022-10-11T10:25:43.323Z,57.00
2022-10-11T10:28:31.402Z,56.78
2022-10-11T10:31:27.051Z,56.53
2022-10-11T10:34:28.536Z,56.59
2022-10-11T10:37:32.282Z,57.23
2022-10-11T10:40:28.246Z,57.18
2022-10-11T10:46:49.744Z,57.48
2022-10-11T10:49:55.743Z,57.94
2022-10-11T10:53:16.065Z,57.55
2022-10-11T10:56:23.027Z,57.34
2022-10-11T10:59:25.372Z,56.82
2022-10-11T11:05:45.729Z,57.92
2022-10-11T11:08:47.099Z,58.70
2022-10-11T11:11:39.181Z,58.62
2022-10-11T11:14:43.858Z,58.59
2022-10-11T11:17:45.417Z,57.24
2022-10-11T11:20:58.834Z,56.73
2022-10-11T11:24:30.456Z,56.64
2022-10-11T11:27:18.135Z,56.65
2022-10-11T11:30:18.946Z,56.58
2022-10-11T11:33:02.404Z,56.42
2022-10-11T11:36:13.447Z,57.28
2022-10-11T11:39:01.814Z,56.92
2022-10-11T11:42:12.734Z,56.84
2022-10-11T11:45:02.758Z,56.99
2022-10-11T11:47:55.557Z,57.80
2022-10-11T11:50:45.330Z,57.89
2022-10-11T11:53:42.643Z,57.41
2022-10-11T11:56:54.994Z,58.57
2022-10-11T11:59:52.405Z,57.99
2022-10-11T12:03:00.733Z,57.72
2022-10-11T12:06:28.687Z,59.10
2022-10-11T12:09:23.286Z,58.04
2022-10-11T12:12:09.876Z,57.19
2022-10-11T12:15:08.207Z,56.16
2022-10-11T12:17:57.095Z,56.38
2022-10-11T12:20:40.867Z,56.40
2022-10-11T12:23:28.980Z,56.78
2022-10-11T12:26:18.205Z,56.30
2022-10-11T12:29:03.869Z,55.69
2022-10-11T12:31:47.689Z,56.12
2022-10-11T12:34:34.792Z,56.24
2022-10-11T12:37:21.870Z,57.26
2022-10-11T12:39:58.883Z,57.49
2022-10-11T12:42:26.420Z,57.00
2022-10-11T12:45:15.387Z,56.42
2022-10-11T12:48:02.164Z,56.18
2022-10-11T12:50:44.231Z,55.91
2022-10-11T12:53:23.838Z,55.48
2022-10-11T12:56:08.986Z,55.33
2022-10-11T12:58:41.377Z,54.58
2022-10-11T13:01:10.433Z,54.02
2022-10-11T13:03:44.852Z,55.00
2022-10-11T13:06:25.257Z,54.97
2022-10-11T13:09:24.021Z,55.30
2022-10-11T13:12:13.686Z,55.57
2022-10-11T13:14:45.646Z,56.44
2022-10-11T13:17:26.858Z,55.81
2022-10-11T13:20:05.801Z,55.82
2022-10-11T13:22:39.713Z,55.23
2022-10-11T13:25:07.866Z,55.17
2022-10-11T13:27:37.683Z,54.94
2022-10-11T13:30:11.674Z,54.17
2022-10-11T13:32:39.353Z,54.53
2022-10-11T13:35:14.611Z,54.58
2022-10-11T13:37:46.220Z,55.63
2022-10-11T13:40:15.659Z,55.94
2022-10-11T13:42:44.343Z,56.14
2022-10-11T13:45:25.614Z,55.82
2022-10-11T13:47:54.635Z,56.18
2022-10-11T13:50:30.564Z,56.34
2022-10-11T13:53:02.324Z,55.98
2022-10-11T13:55:35.700Z,55.74
2022-10-11T13:58:18.363Z,56.10
2022-10-11T14:00:58.207Z,55.50
2022-10-11T14:04:08.066Z,55.51
2022-10-11T14:06:59.393Z,56.01
2022-10-11T14:09:30.943Z,55.54
2022-10-11T14:12:32.516Z,56.17
2022-10-11T14:15:00.992Z,55.91
2022-10-11T14:17:42.852Z,55.34
2022-10-11T14:20:33.740Z,55.37
2022-10-11T14:23:00.692Z,55.86
2022-10-11T14:25:27.941Z,56.50
2022-10-11T14:27:55.408Z,55.91
2022-10-11T14:30:26.163Z,56.25
2022-10-11T14:32:56.821Z,56.32
2022-10-11T14:35:31.672Z,56.47
2022-10-11T14:37:59.218Z,57.14
2022-10-11T14:40:29.751Z,56.31
2022-10-11T14:42:57.153Z,56.78
2022-10-11T14:45:26.874Z,56.37
2022-10-11T14:47:55.877Z,56.88
2022-10-11T14:50:41.560Z,56.82
2022-10-11T14:53:09.873Z,57.18
2022-10-11T14:55:39.318Z,57.63
2022-10-11T14:58:11.150Z,57.25
2022-10-11T15:00:38.538Z,57.14
2022-10-11T15:03:09.868Z,58.07
2022-10-11T15:05:37.969Z,58.41
2022-10-11T15:08:06.621Z,57.97
2022-10-11T15:10:41.057Z,57.75
2022-10-11T15:13:09.036Z,57.56
2022-10-11T15:15:37.683Z,57.64
2022-10-11T15:18:06.680Z,57.53
2022-10-11T15:20:42.259Z,57.22
2022-10-11T15:23:10.910Z,57.14
2022-10-11T15:25:40.635Z,57.39
2022-10-11T15:28:10.196Z,56.86
2022-10-11T15:30:41.351Z,57.12
2022-10-11T15:33:09.485Z,56.77
2022-10-11T15:35:36.393Z,57.21
2022-10-11T15:38:04.546Z,56.57
2022-10-11T15:40:34.403Z,57.41
2022-10-11T15:43:01.974Z,57.46
2022-10-11T15:45:29.904Z,57.27
2022-10-11T15:47:57.165Z,58.13
2022-10-11T15:50:39.915Z,58.60
2022-10-11T15:53:09.735Z,58.13
2022-10-11T15:55:39.656Z,58.50
2022-10-11T15:58:12.206Z,58.31
2022-10-11T16:03:42.721Z,58.43
2022-10-11T16:09:08.947Z,57.86
2022-10-11T16:17:36.159Z,59.48
2022-10-11T16:20:06.764Z,60.15
2022-10-11T16:22:34.609Z,60.77
2022-10-11T16:25:02.505Z,61.31
2022-10-11T16:27:30.729Z,61.37
2022-10-11T16:29:58.365Z,62.11
2022-10-11T16:32:25.566Z,62.66
2022-10-11T16:34:52.450Z,62.30
2022-10-11T16:37:20.693Z,62.66
2022-10-11T16:39:47.668Z,62.83
2022-10-11T16:42:14.539Z,63.08
2022-10-11T16:44:41.523Z,63.47
2022-10-11T16:47:09.614Z,63.48
2022-10-11T16:49:37.758Z,63.33
2022-10-11T16:52:04.936Z,63.31
2022-10-11T16:54:39.739Z,63.62
2022-10-11T16:57:06.875Z,64.12
2022-10-11T16:59:36.706Z,64.26
2022-10-11T17:02:05.153Z,64.35
2022-10-11T17:04:33.097Z,64.32
2022-10-11T17:07:00.246Z,63.86
2022-10-11T17:09:28.055Z,64.38
2022-10-11T17:11:54.947Z,64.24
2022-10-11T17:14:22.106Z,63.83
2022-10-11T17:16:49.003Z,63.97
2022-10-11T17:19:16.487Z,64.25
2022-10-11T17:21:47.624Z,64.10
2022-10-11T17:24:14.487Z,64.33
2022-10-11T17:26:41.443Z,64.47
2022-10-11T17:29:14.337Z,64.53
2022-10-11T17:31:48.051Z,63.62
2022-10-11T17:34:19.923Z,63.57
2022-10-11T17:36:50.006Z,63.99
2022-10-11T17:39:22.267Z,64.37
2022-10-11T17:41:50.572Z,64.48
2022-10-11T17:44:25.073Z,64.31
2022-10-11T17:46:52.761Z,65.10
2022-10-11T17:49:27.603Z,64.30
2022-10-11T17:54:39.171Z,63.64
2022-10-11T17:57:06.121Z,64.28
2022-10-11T17:59:37.175Z,64.29
2022-10-11T18:02:05.335Z,63.62
2022-10-11T18:04:34.134Z,63.88
2022-10-11T18:07:03.361Z,63.55
2022-10-11T18:09:32.384Z,64.00
2022-10-11T18:11:59.805Z,63.87
2022-10-11T18:14:38.624Z,65.06
2022-10-11T18:17:05.703Z,65.29
2022-10-11T18:19:39.033Z,66.36
2022-10-11T18:22:27.482Z,66.29
2022-10-11T18:24:56.528Z,66.35
2022-10-11T18:27:27.662Z,65.70
2022-10-11T18:30:02.184Z,65.26
2022-10-11T18:32:31.045Z,64.37
2022-10-11T18:35:00.011Z,64.79
2022-10-11T18:37:27.769Z,64.53
2022-10-11T18:39:54.695Z,64.68
2022-10-11T18:42:22.172Z,64.73
2022-10-11T18:44:55.607Z,64.82
2022-10-11T18:47:24.840Z,65.89
2022-10-11T18:49:51.803Z,65.55
2022-10-11T18:52:25.408Z,65.56
2022-10-11T18:57:41.426Z,66.09
2022-10-11T19:00:37.717Z,67.13
2022-10-11T19:03:05.718Z,66.54
2022-10-11T19:05:45.716Z,66.25
2022-10-11T19:08:17.447Z,66.47
2022-10-11T19:10:47.212Z,66.29
2022-10-11T19:13:17.833Z,66.22
2022-10-11T19:15:44.719Z,66.20
2022-10-11T19:18:13.493Z,65.73
2022-10-11T19:20:41.888Z,66.00
2022-10-11T19:23:08.741Z,66.36
2022-10-11T19:25:37.504Z,66.04
2022-10-11T19:28:04.693Z,66.15
2022-10-11T19:30:32.743Z,66.63
2022-10-11T19:33:01.115Z,66.69
2022-10-11T19:35:28.071Z,66.95
2022-10-11T19:37:57.997Z,67.06
2022-10-11T19:40:24.991Z,67.27
2022-10-11T19:42:52.397Z,67.18
2022-10-11T19:45:19.278Z,67.97
2022-10-11T19:47:46.289Z,68.07
2022-10-11T19:50:13.151Z,68.15
2022-10-11T19:52:44.735Z,68.05
2022-10-11T19:55:11.990Z,68.13
2022-10-11T19:57:40.408Z,68.67
2022-10-11T20:00:09.429Z,68.80
2022-10-11T20:02:38.786Z,69.53
2022-10-11T20:05:06.167Z,70.38
2022-10-11T20:07:35.008Z,70.13
2022-10-11T20:10:03.665Z,70.72
2022-10-11T20:12:34.291Z,70.45
2022-10-11T20:15:01.924Z,70.64
2022-10-11T20:17:48.899Z,71.32
2022-10-11T20:20:20.649Z,70.39
2022-10-11T20:22:47.656Z,71.00
2022-10-11T20:25:17.954Z,70.64
2022-10-11T20:27:50.857Z,70.33
2022-10-11T20:30:18.192Z,69.56
2022-10-11T20:32:47.150Z,69.50
2022-10-11T20:35:16.510Z,68.81
2022-10-11T20:37:44.330Z,69.27
2022-10-11T20:40:12.108Z,68.82
2022-10-11T20:42:39.167Z,68.56
2022-10-11T20:45:06.464Z,68.95
2022-10-11T20:47:33.816Z,69.08
2022-10-11T20:50:00.766Z,69.10
2022-10-11T20:52:27.949Z,70.59
2022-10-11T20:54:54.786Z,70.80
2022-10-11T20:57:21.625Z,70.10
2022-10-11T20:59:48.492Z,70.53
2022-10-11T21:02:18.824Z,70.36
2022-10-11T21:04:46.038Z,69.45
2022-10-11T21:07:12.912Z,68.82
2022-10-11T21:09:39.756Z,69.01
2022-10-11T21:12:06.699Z,68.77
2022-10-11T21:14:33.578Z,68.54
2022-10-11T21:17:00.500Z,68.81
2022-10-11T21:19:27.407Z,68.30
2022-10-11T21:21:54.727Z,68.63
2022-10-11T21:24:21.701Z,68.56
2022-10-11T21:26:48.668Z,68.28
2022-10-11T21:29:15.613Z,68.58
2022-10-11T21:31:42.457Z,68.69
2022-10-11T21:34:09.453Z,68.67
2022-10-11T21:36:36.376Z,68.79
2022-10-11T21:39:03.832Z,69.08
2022-10-11T21:41:30.700Z,69.65
2022-10-11T21:43:58.425Z,69.07
2022-10-11T21:46:42.019Z,69.05
2022-10-11T21:49:15.594Z,69.37
2022-10-11T21:51:42.594Z,71.18
2022-10-11T21:54:09.449Z,71.16
2022-10-11T21:56:36.425Z,70.90
2022-10-11T21:59:06.510Z,70.42
2022-10-11T22:01:36.980Z,70.44
2022-10-11T22:04:05.029Z,70.68
2022-10-11T22:06:31.892Z,70.74
2022-10-11T22:08:58.829Z,70.08
2022-10-11T22:11:25.796Z,70.13
2022-10-11T22:13:52.959Z,69.76
2022-10-11T22:16:20.299Z,69.56
2022-10-11T22:18:47.487Z,69.70
2022-10-11T22:21:17.620Z,69.58
2022-10-11T22:23:46.664Z,69.21
2022-10-11T22:26:18.776Z,69.58
2022-10-11T22:28:46.961Z,68.99
2022-10-11T22:31:14.630Z,70.17
2022-10-11T22:33:42.099Z,70.00
2022-10-11T22:36:10.553Z,69.66
2022-10-11T22:38:40.149Z,69.64
2022-10-11T22:41:07.278Z,69.40
2022-10-11T22:43:34.400Z,68.71
2022-10-11T22:46:01.785Z,69.03
2022-10-11T22:48:28.740Z,69.12
2022-10-11T22:50:55.582Z,69.51
2022-10-11T22:53:22.699Z,69.20
2022-10-11T22:55:49.603Z,69.17
2022-10-11T22:58:16.461Z,69.17
2022-10-11T23:00:43.943Z,69.54
2022-10-11T23:03:15.242Z,69.05
2022-10-11T23:05:42.312Z,69.40
2022-10-11T23:08:09.682Z,69.09
2022-10-11T23:10:40.155Z,70.12
2022-10-11T23:13:07.139Z,69.87
2022-10-11T23:15:33.997Z,70.70
2022-10-11T23:18:00.844Z,70.47
2022-10-11T23:20:27.826Z,70.31
2022-10-11T23:22:54.743Z,70.45
2022-10-11T23:25:21.668Z,70.26
2022-10-11T23:27:48.546Z,70.55
2022-10-11T23:30:15.594Z,70.96
2022-10-11T23:32:42.466Z,70.46
2022-10-11T23:35:09.931Z,71.98
2022-10-11T23:37:37.112Z,71.95
2022-10-11T23:40:04.981Z,72.14
2022-10-11T23:42:31.918Z,72.16
2022-10-11T23:44:59.024Z,72.71
2022-10-11T23:47:28.643Z,72.13
2022-10-11T23:49:55.516Z,72.76
2022-10-11T23:52:22.418Z,72.97
2022-10-11T23:54:49.681Z,73.10
2022-10-11T23:57:16.520Z,73.44
2022-10-11T23:59:43.368Z,73.34
